Copperton, Utah
Current Conditions -  °F | °C
As of 8:53 PM on Tuesday 25 Nov 2014 (Local Time) from KSLC Reporting Station
Broken Clouds Broken Clouds  
Wind Chill: 40°   Ceiling: 5500
Heat Index: 45°   Visibility: 10mi
Dew Point: 30°   Wind: 9mph
Humidity: 56%   Direction: 130°SE
Pressure: 30.3"   Gusts: NA
Location:  40.5425°N, 112.133°W
Report Text: KSLC 260353Z 13008KT 10SM BKN055 BKN080 07/M01 A3030 RMK AO2 SLP259 T00721011
Loading
Personal Weather Stations






























Interactive Weather Map New forecast layout! Learn more

10-Day Weather Forecast

Advertisements
Track Severe Weather on mobile